Hovedside
METAR-TAF:

METAR-TAF

Lufthavner :

Dusjanbe, Tadsjikistan

breddegrad: 38-33N, lengdegrad: 068-47E, høyde over havet: 803 m

Gjeldene værobservasjon

Denne rapporten ble laget for 13 minutter siden, klokken 17:00 UTC
Vind 6 kt fra Øst
Temperatur 28°C
Luftfuktighet 37%
Trykk 1000 hPa
Sikt: 7000 m

METAR: UTDD 231700Z 10003MPS 7000 NSC 28/12 Q1000 R09/CLRD// NOSIG RMK QFE682/0910

Tid: 22:13 (17:13 UTC)

Varsel

Denne rapporten ble laget for 2 timer og 13 minutter siden, klokken 15:00 UTC
Varsel gyldig fra 23. klokken 16 UTC til 24. klokken 04 UTC
Vind 4 kt fra skiftende retning
Sikt: 6000 m
Få skyer i en høyde av 6600 ft, Bygeskyer.
Spredte skyer i en høyde av 12000 ft

TAF: UTDD 231500Z 2316/2404 VRB02MPS 6000 FEW066CB SCT120

Værobservasjoner og værvarsel for over 4000 flyplasser (METAR- og TAF-rapporter).

Tilgjengelige stasjoner er representert av de røde og gule prikkene på kartet.

Hold musepekeren over prikken for å se navnet på stasjonen.

Klikk så for å se værobservasjoner og -varsler.

For å forandre kartet kan du klikke på den grønne knappen med svart kryss for å zoome inn, på den grønne knappen med strek for å zoome ut, eller på de grønne pilene for å se tilstøtende kart.


METAR-TAF: